Time;durP1;ratioP1;P1;durP2;ratioP2;P2;SDS_P1;SDS_P2;PMS_P1;PMS_P2;Temp;Humidity;BMP_temperature;BMP_pressure;BME280_temperature;BME280_humidity;BME280_pressure;Samples;Min_cycle;Max_cycle;Signal;HPM_P1;HPM_P2
2022/11/06 00:01:06;;;;;;;10.75;6.63;;;3.30;78.10;;;;;;5025000;28;19909;-68
2022/11/06 00:03:32;;;;;;;11.65;6.97;;;3.30;78.60;;;;;;5030245;28;20053;-68
2022/11/06 00:09:00;;;;;;;13.88;7.40;;;3.30;80.30;;;;;;5030478;28;20453;-68
2022/11/06 00:11:29;;;;;;;13.00;7.60;;;3.40;80.90;;;;;;5022167;28;20040;-68
2022/11/06 00:13:56;;;;;;;14.50;7.80;;;3.40;81.60;;;;;;5025233;28;20030;-67
2022/11/06 00:16:22;;;;;;;13.48;7.03;;;3.50;83.10;;;;;;5012246;28;20070;-67
2022/11/06 00:18:48;;;;;;;14.43;7.53;;;3.40;84.40;;;;;;5043198;28;20573;-67
2022/11/06 00:21:17;;;;;;;11.63;7.70;;;3.40;84.30;;;;;;5025308;28;20021;-67
2022/11/06 00:23:43;;;;;;;16.40;8.35;;;3.30;82.80;;;;;;5031631;28;20033;-68
2022/11/06 00:26:15;;;;;;;15.02;8.57;;;3.40;81.80;;;;;;5032839;28;20073;-68
2022/11/06 00:28:46;;;;;;;19.30;9.88;;;3.40;81.50;;;;;;5030564;28;20079;-68
2022/11/06 00:31:14;;;;;;;15.80;9.52;;;3.50;80.70;;;;;;5023139;28;20434;-68
2022/11/06 00:33:43;;;;;;;17.80;10.25;;;3.60;80.60;;;;;;5032075;28;20025;-67
2022/11/06 00:36:18;;;;;;;17.13;9.40;;;3.60;81.90;;;;;;5019920;28;20433;-67
2022/11/06 00:38:44;;;;;;;17.42;9.50;;;3.70;81.70;;;;;;5031021;28;20030;-67
2022/11/06 00:41:13;;;;;;;16.50;9.75;;;3.80;82.30;;;;;;5026511;28;20033;-68
2022/11/06 00:43:38;;;;;;;17.30;8.57;;;3.90;84.30;;;;;;5032857;28;20385;-68
2022/11/06 00:46:07;;;;;;;17.13;9.75;;;3.80;86.20;;;;;;5025658;28;20057;-67
2022/11/06 00:48:34;;;;;;;17.90;10.55;;;3.80;86.60;;;;;;5028545;28;20033;-67
2022/11/06 00:51:05;;;;;;;18.25;9.93;;;3.80;87.10;;;;;;5026892;28;20021;-67
2022/11/06 00:53:34;;;;;;;17.63;9.93;;;3.70;87.20;;;;;;5033218;28;20391;-67
2022/11/06 00:56:07;;;;;;;14.50;8.85;;;3.70;88.00;;;;;;5028700;28;20034;-67
2022/11/06 00:58:35;;;;;;;13.40;8.38;;;3.70;87.80;;;;;;5021015;28;20025;-67
2022/11/06 01:01:22;;;;;;;14.80;8.75;;;3.70;88.40;;;;;;5016784;28;20052;-67
2022/11/06 01:03:57;;;;;;;22.15;9.30;;;3.70;89.60;;;;;;5029250;28;20100;-66
2022/11/06 01:06:26;;;;;;;13.50;8.35;;;3.60;89.30;;;;;;5051909;28;20036;-67
2022/11/06 01:08:57;;;;;;;13.13;8.98;;;3.50;89.20;;;;;;5029650;28;20101;-68
2022/11/06 01:11:24;;;;;;;19.23;8.65;;;3.40;87.80;;;;;;5024682;28;20914;-67
2022/11/06 01:13:52;;;;;;;15.43;8.85;;;3.40;88.70;;;;;;5027992;28;20037;-67
2022/11/06 01:16:20;;;;;;;15.43;9.00;;;3.30;88.60;;;;;;5023225;28;20021;-67
2022/11/06 01:18:46;;;;;;;17.15;9.63;;;3.10;88.60;;;;;;5027534;28;20052;-68
2022/11/06 01:21:33;;;;;;;16.30;9.70;;;2.90;87.50;;;;;;5017868;28;20037;-67
2022/11/06 01:24:05;;;;;;;16.23;10.55;;;2.90;85.20;;;;;;5028880;28;20108;-67
2022/11/06 01:26:32;;;;;;;15.80;9.27;;;3.00;84.30;;;;;;5014134;28;20483;-68
2022/11/06 01:28:58;;;;;;;17.90;9.55;;;3.00;83.70;;;;;;5003462;28;20120;-67
2022/11/06 01:31:29;;;;;;;17.33;9.35;;;3.00;83.90;;;;;;5022963;28;20028;-67
2022/11/06 01:33:59;;;;;;;16.60;9.95;;;3.00;83.90;;;;;;5029498;28;20108;-67
2022/11/06 01:36:28;;;;;;;21.05;11.77;;;2.90;84.50;;;;;;5025557;28;20037;-67
2022/11/06 01:38:56;;;;;;;19.42;11.25;;;2.90;83.70;;;;;;5025291;28;20783;-68
2022/11/06 01:41:31;;;;;;;17.13;9.52;;;2.70;86.40;;;;;;5028325;28;20025;-67
2022/11/06 01:44:03;;;;;;;22.25;11.50;;;2.40;83.80;;;;;;5027919;28;20029;-67
2022/11/06 01:46:34;;;;;;;23.13;12.88;;;2.40;84.00;;;;;;5027629;28;20059;-69
2022/11/06 01:49:09;;;;;;;22.05;13.23;;;2.20;84.50;;;;;;5029238;28;20112;-67
2022/11/06 01:52:01;;;;;;;17.52;11.00;;;2.00;84.50;;;;;;5021002;28;20021;-67
2022/11/06 01:54:28;;;;;;;21.67;13.38;;;1.70;84.20;;;;;;5019530;28;20084;-70
2022/11/06 01:56:58;;;;;;;17.48;10.50;;;1.50;83.70;;;;;;5030233;28;20140;-67
2022/11/06 01:59:27;;;;;;;16.58;10.73;;;1.40;82.50;;;;;;5010478;28;20719;-68
2022/11/06 02:01:53;;;;;;;25.98;14.60;;;1.30;80.50;;;;;;5019635;28;20037;-68
2022/11/06 02:04:23;;;;;;;19.35;12.05;;;1.40;77.80;;;;;;5027584;28;20029;-67
2022/11/06 02:06:49;;;;;;;24.25;14.35;;;1.40;79.50;;;;;;5023792;28;20140;-66
2022/11/06 02:09:16;;;;;;;18.75;11.55;;;1.30;79.80;;;;;;5026493;28;20105;-67
2022/11/06 02:11:44;;;;;;;16.00;10.45;;;1.30;79.10;;;;;;5022293;28;20115;-66
2022/11/06 02:14:23;;;;;;;18.85;11.05;;;1.20;78.30;;;;;;5024479;28;20018;-67
2022/11/06 02:16:49;;;;;;;18.80;11.45;;;1.10;78.90;;;;;;5020751;28;20021;-66
2022/11/06 02:19:38;;;;;;;18.25;11.20;;;1.10;77.90;;;;;;5027645;28;20035;-67
2022/11/06 02:22:09;;;;;;;18.60;11.77;;;1.10;77.30;;;;;;5021392;28;20022;-68
2022/11/06 02:25:05;;;;;;;17.45;10.25;;;1.00;79.50;;;;;;5026069;28;20132;-67
2022/11/06 02:27:33;;;;;;;18.77;10.32;;;0.90;78.30;;;;;;5026169;28;20037;-67
2022/11/06 02:30:11;;;;;;;16.80;11.27;;;0.90;78.40;;;;;;5024583;28;20309;-68
2022/11/06 02:32:43;;;;;;;20.63;12.40;;;0.90;77.80;;;;;;5022410;28;20025;-67
2022/11/06 02:35:39;;;;;;;19.88;11.63;;;1.00;77.10;;;;;;5010748;28;20035;-67
2022/11/06 02:38:11;;;;;;;27.15;14.48;;;1.00;77.50;;;;;;5028844;28;20033;-67
2022/11/06 02:40:43;;;;;;;24.02;11.13;;;0.80;80.10;;;;;;5008975;28;20064;-67
2022/11/06 02:43:09;;;;;;;24.08;13.10;;;0.70;79.40;;;;;;5023784;28;20029;-68
2022/11/06 02:45:57;;;;;;;31.20;13.75;;;0.60;79.50;;;;;;5022022;28;20029;-67
2022/11/06 02:48:29;;;;;;;22.58;11.52;;;0.40;79.20;;;;;;5025310;28;20063;-67
2022/11/06 02:51:01;;;;;;;19.75;10.90;;;0.30;79.00;;;;;;5039151;28;20029;-68
2022/11/06 02:53:29;;;;;;;19.38;9.77;;;0.20;78.40;;;;;;5023096;28;20447;-67
2022/11/06 02:56:19;;;;;;;19.17;10.70;;;0.10;77.20;;;;;;5011030;28;20441;-67
2022/11/06 02:58:53;;;;;;;17.60;10.13;;;0.20;74.60;;;;;;5028721;28;20037;-67
2022/11/06 03:01:26;;;;;;;24.50;11.95;;;0.30;74.50;;;;;;5021189;28;20025;-67
2022/11/06 03:03:56;;;;;;;21.65;11.43;;;0.30;74.90;;;;;;5025957;28;20021;-68
2022/11/06 03:06:34;;;;;;;24.27;11.25;;;0.60;71.50;;;;;;5027458;28;20104;-67
2022/11/06 03:09:17;;;;;;;24.50;11.57;;;1.20;70.70;;;;;;5027284;28;20031;-66
2022/11/06 03:11:44;;;;;;;26.60;12.20;;;1.60;71.30;;;;;;5026368;28;20097;-67
2022/11/06 03:14:27;;;;;;;22.92;12.05;;;1.80;71.00;;;;;;5026174;28;20045;-67
2022/11/06 03:17:05;;;;;;;20.87;10.73;;;1.90;71.60;;;;;;5029553;28;20136;-67
2022/11/06 03:19:49;;;;;;;22.85;11.60;;;1.90;71.90;;;;;;5026488;28;20022;-68
2022/11/06 03:22:27;;;;;;;24.10;12.25;;;2.00;71.90;;;;;;5010026;28;20056;-67
2022/11/06 03:25:01;;;;;;;23.48;12.85;;;2.00;72.20;;;;;;5022580;28;20327;-68
2022/11/06 03:27:48;;;;;;;27.17;14.02;;;2.00;72.60;;;;;;5030379;28;20050;-68
2022/11/06 03:30:14;;;;;;;26.23;12.40;;;1.90;72.80;;;;;;5030494;28;20025;-68
2022/11/06 03:32:54;;;;;;;24.65;13.05;;;1.90;73.00;;;;;;5024946;28;20482;-68
2022/11/06 03:35:39;;;;;;;26.38;14.50;;;1.90;72.80;;;;;;5011764;28;20421;-68
2022/11/06 03:38:30;;;;;;;25.75;13.00;;;1.80;74.20;;;;;;5028245;28;20296;-68
2022/11/06 03:41:07;;;;;;;27.48;14.05;;;1.60;74.20;;;;;;5035145;28;20030;-67
2022/11/06 03:43:39;;;;;;;30.02;15.48;;;1.60;73.70;;;;;;5025886;28;20112;-67
2022/11/06 03:46:10;;;;;;;22.73;11.75;;;1.60;73.90;;;;;;5027842;28;20414;-68
2022/11/06 03:48:47;;;;;;;22.73;12.65;;;1.60;73.70;;;;;;5012897;28;20029;-68
2022/11/06 03:51:20;;;;;;;24.02;12.73;;;1.60;73.10;;;;;;5035135;28;20029;-68
2022/11/06 03:53:52;;;;;;;21.65;12.15;;;1.70;73.20;;;;;;5025945;28;20029;-68
2022/11/06 03:56:35;;;;;;;22.75;12.45;;;1.70;74.10;;;;;;5033088;28;20033;-67
2022/11/06 03:59:04;;;;;;;25.17;12.43;;;1.60;73.80;;;;;;5025938;28;20326;-68
2022/11/06 04:01:36;;;;;;;20.75;11.45;;;1.70;73.90;;;;;;5026291;28;20048;-67
2022/11/06 04:04:10;;;;;;;20.40;11.98;;;1.70;74.20;;;;;;5031006;28;20406;-68
2022/11/06 04:06:47;;;;;;;24.08;13.18;;;1.80;73.60;;;;;;5031950;28;20037;-68
2022/11/06 04:14:51;;;;;;;22.50;12.13;;;1.60;74.20;;;;;;5030903;28;20036;-68
2022/11/06 04:17:18;;;;;;;19.85;11.25;;;1.50;75.60;;;;;;5027256;28;20453;-68
2022/11/06 04:19:51;;;;;;;18.42;10.65;;;1.40;75.70;;;;;;5031409;28;20034;-67
2022/11/06 04:22:44;;;;;;;18.30;11.00;;;1.30;75.30;;;;;;5034424;28;20025;-67
2022/11/06 04:28:45;;;;;;;20.13;11.68;;;1.30;74.60;;;;;;5033029;28;20099;-67
2022/11/06 04:31:21;;;;;;;21.02;12.10;;;1.30;74.20;;;;;;5027288;28;20371;-67
2022/11/06 04:34:06;;;;;;;21.27;12.02;;;1.30;73.90;;;;;;5022015;28;20350;-67
2022/11/06 04:36:47;;;;;;;22.15;11.88;;;1.30;74.50;;;;;;5018698;28;20022;-68
2022/11/06 04:39:19;;;;;;;27.77;13.43;;;1.30;74.10;;;;;;5045414;28;20028;-68
2022/11/06 04:41:50;;;;;;;23.80;12.80;;;1.40;72.90;;;;;;5020626;28;20018;-68
2022/11/06 04:44:45;;;;;;;25.40;13.45;;;1.50;72.60;;;;;;5039655;28;20044;-68
2022/11/06 04:47:16;;;;;;;21.55;11.73;;;1.70;72.10;;;;;;5010217;28;20100;-69
2022/11/06 04:49:43;;;;;;;22.50;12.55;;;1.80;72.40;;;;;;5028713;28;20048;-68
2022/11/06 04:52:14;;;;;;;24.67;12.77;;;1.80;72.60;;;;;;5022907;28;20464;-68
2022/11/06 04:54:40;;;;;;;28.63;13.60;;;1.90;72.20;;;;;;5032441;28;20330;-68
2022/11/06 04:57:06;;;;;;;24.98;12.38;;;2.10;71.60;;;;;;5029537;28;20104;-69
2022/11/06 04:59:35;;;;;;;26.95;13.93;;;2.10;73.20;;;;;;5021868;28;20370;-68
2022/11/06 05:02:00;;;;;;;24.90;11.63;;;1.90;73.70;;;;;;5024774;28;20316;-68
2022/11/06 05:04:28;;;;;;;23.83;11.90;;;1.90;74.10;;;;;;5029477;28;20149;-68
2022/11/06 05:06:54;;;;;;;21.10;11.63;;;1.70;75.00;;;;;;5027248;28;20029;-68
2022/11/06 05:09:19;;;;;;;24.35;11.85;;;1.60;75.30;;;;;;5020432;28;20033;-68
2022/11/06 05:11:45;;;;;;;18.20;10.13;;;1.50;75.20;;;;;;5031975;28;20434;-68
2022/11/06 05:14:11;;;;;;;18.95;10.55;;;1.40;75.80;;;;;;5020795;28;20021;-68
2022/11/06 05:16:36;;;;;;;19.58;10.25;;;1.20;75.80;;;;;;5029506;28;20041;-68
2022/11/06 05:19:02;;;;;;;18.38;10.18;;;1.30;74.00;;;;;;5021804;28;20029;-69
2022/11/06 05:24:13;;;;;;;17.48;10.10;;;1.60;72.10;;;;;;5022302;28;20327;-68
2022/11/06 05:26:56;;;;;;;24.23;12.45;;;1.70;73.40;;;;;;5024777;28;20037;-68
2022/11/06 05:29:22;;;;;;;24.35;11.25;;;1.80;72.90;;;;;;5023093;28;20083;-68
2022/11/06 05:31:49;;;;;;;18.38;9.95;;;2.00;73.20;;;;;;5019836;28;20022;-68
2022/11/06 05:34:14;;;;;;;18.25;9.75;;;1.90;74.30;;;;;;5016971;28;20034;-68
2022/11/06 05:36:40;;;;;;;16.63;9.45;;;1.70;76.40;;;;;;5021080;28;20033;-68
2022/11/06 05:39:06;;;;;;;17.85;10.35;;;1.60;76.00;;;;;;5021410;28;20037;-68
2022/11/06 05:41:31;;;;;;;21.33;10.40;;;1.40;76.50;;;;;;5026918;28;20068;-68
2022/11/06 05:43:57;;;;;;;18.73;9.57;;;1.30;76.90;;;;;;5030038;28;20168;-68
2022/11/06 05:46:23;;;;;;;16.50;8.93;;;1.10;76.90;;;;;;5025282;28;20075;-68
2022/11/06 05:48:48;;;;;;;14.70;8.57;;;1.00;76.70;;;;;;5023283;28;20026;-68
2022/11/06 05:51:14;;;;;;;19.30;11.15;;;0.90;76.40;;;;;;5023764;28;20029;-68
2022/11/06 05:53:40;;;;;;;19.73;11.05;;;0.90;75.20;;;;;;5022566;28;20322;-69
2022/11/06 05:56:08;;;;;;;20.42;11.07;;;0.90;75.20;;;;;;5025201;28;20031;-68
2022/11/06 05:58:34;;;;;;;22.50;11.57;;;0.80;75.00;;;;;;5020134;28;20080;-68
2022/11/06 06:01:00;;;;;;;18.25;9.68;;;0.70;75.90;;;;;;5023248;28;20348;-68
2022/11/06 06:03:26;;;;;;;20.23;9.75;;;0.70;75.50;;;;;;5021209;28;20036;-67
2022/11/06 06:05:54;;;;;;;15.30;8.02;;;0.50;76.20;;;;;;5014149;28;20036;-67
2022/11/06 06:08:20;;;;;;;18.13;9.32;;;0.40;75.00;;;;;;5019719;28;20029;-67
2022/11/06 06:10:48;;;;;;;24.30;10.85;;;0.50;74.20;;;;;;5026269;28;20156;-67
2022/11/06 06:13:17;;;;;;;24.80;12.77;;;0.50;73.40;;;;;;5020551;28;20014;-69
2022/11/06 06:15:42;;;;;;;17.75;10.65;;;0.70;72.10;;;;;;5021886;28;20025;-69
2022/11/06 06:18:11;;;;;;;18.27;11.15;;;0.80;72.90;;;;;;5017334;28;20038;-69
2022/11/06 06:20:36;;;;;;;20.00;12.05;;;0.80;72.70;;;;;;5033413;28;20034;-68
2022/11/06 06:23:02;;;;;;;20.45;11.40;;;0.70;74.10;;;;;;5017111;28;20029;-68
2022/11/06 06:25:31;;;;;;;33.75;15.43;;;0.70;72.50;;;;;;5026900;28;20033;-68
2022/11/06 06:27:57;;;;;;;30.52;14.90;;;0.80;72.70;;;;;;5008414;28;20112;-68
2022/11/06 06:30:24;;;;;;;33.33;15.63;;;0.70;73.80;;;;;;5015017;28;20642;-68
2022/11/06 06:32:51;;;;;;;28.20;12.35;;;0.70;72.70;;;;;;5004099;28;20021;-68
2022/11/06 06:35:17;;;;;;;25.88;12.43;;;0.80;72.10;;;;;;5007678;28;20027;-68
2022/11/06 06:37:49;;;;;;;31.38;14.65;;;0.90;71.90;;;;;;5001948;28;20477;-68
2022/11/06 06:40:15;;;;;;;29.73;14.15;;;1.20;70.80;;;;;;5007112;28;20031;-67
2022/11/06 06:42:44;;;;;;;31.77;15.00;;;1.50;70.80;;;;;;5013718;28;20040;-68
2022/11/06 06:45:09;;;;;;;28.67;14.10;;;1.60;71.00;;;;;;5003024;28;20113;-68
2022/11/06 06:47:35;;;;;;;28.70;15.52;;;1.80;71.00;;;;;;5002867;28;20100;-66
2022/11/06 06:50:01;;;;;;;27.42;13.85;;;2.00;70.50;;;;;;5018282;28;20042;-68
2022/11/06 06:52:26;;;;;;;25.27;13.43;;;2.10;70.70;;;;;;5001601;28;20345;-68
2022/11/06 06:54:52;;;;;;;24.83;13.25;;;2.10;71.00;;;;;;5000230;28;20362;-68
2022/11/06 06:57:17;;;;;;;23.42;13.00;;;2.40;70.20;;;;;;5009385;28;20057;-68
2022/11/06 06:59:43;;;;;;;20.80;11.73;;;2.70;70.20;;;;;;5000915;28;20112;-68
2022/11/06 07:02:09;;;;;;;21.05;11.75;;;2.90;70.30;;;;;;5009827;28;20031;-68
2022/11/06 07:04:34;;;;;;;20.00;11.10;;;3.00;70.50;;;;;;5012073;28;20037;-68
2022/11/06 07:07:00;;;;;;;19.88;11.73;;;3.10;70.50;;;;;;5019052;28;20033;-68
2022/11/06 07:09:29;;;;;;;19.27;11.50;;;3.30;70.60;;;;;;5007950;28;20363;-67
2022/11/06 07:11:55;;;;;;;19.95;11.60;;;3.40;70.70;;;;;;5006066;28;20324;-68
2022/11/06 07:14:21;;;;;;;19.63;11.48;;;3.50;71.50;;;;;;5008705;28;20019;-67
2022/11/06 07:16:47;;;;;;;17.77;10.23;;;3.50;72.70;;;;;;5006339;28;20033;-68
2022/11/06 07:19:12;;;;;;;13.32;8.18;;;3.50;73.20;;;;;;5003243;28;20118;-68
2022/11/06 07:21:38;;;;;;;14.40;9.05;;;3.40;74.30;;;;;;5005570;28;20057;-68
2022/11/06 07:24:04;;;;;;;13.48;8.52;;;3.50;75.10;;;;;;5000574;28;20120;-68
2022/11/06 07:26:30;;;;;;;15.65;9.77;;;3.50;76.40;;;;;;5005961;28;20351;-69
2022/11/06 07:28:58;;;;;;;14.18;8.63;;;3.60;78.50;;;;;;5017236;28;20037;-67
2022/11/06 07:31:24;;;;;;;16.90;9.35;;;3.60;80.00;;;;;;5018403;28;20111;-68
2022/11/06 07:33:49;;;;;;;14.02;9.30;;;3.70;81.20;;;;;;5016722;28;20049;-68
2022/11/06 07:36:15;;;;;;;13.05;9.13;;;3.80;82.80;;;;;;5016928;28;20753;-67
2022/11/06 07:38:41;;;;;;;14.57;8.88;;;3.80;84.80;;;;;;5029140;28;20139;-69
2022/11/06 07:41:10;;;;;;;15.45;9.65;;;3.90;87.00;;;;;;5018034;28;20030;-68
2022/11/06 07:43:36;;;;;;;14.30;8.48;;;4.00;87.10;;;;;;5019297;28;20045;-68
2022/11/06 07:46:05;;;;;;;12.77;7.07;;;4.00;88.40;;;;;;5015094;28;20057;-68
2022/11/06 07:48:31;;;;;;;12.75;7.50;;;4.10;88.40;;;;;;5028112;28;20330;-68
2022/11/06 07:51:00;;;;;;;10.73;6.05;;;4.50;89.10;;;;;;5030275;28;20029;-68
2022/11/06 07:53:26;;;;;;;10.38;6.63;;;4.80;95.80;;;;;;5019652;28;20026;-67
2022/11/06 07:55:57;;;;;;;10.52;6.03;;;4.70;95.40;;;;;;5031531;28;20036;-68
2022/11/06 07:58:27;;;;;;;11.07;6.97;;;4.60;94.50;;;;;;5021861;28;20097;-68
2022/11/06 08:00:56;;;;;;;10.98;6.95;;;4.70;94.70;;;;;;5023757;28;20044;-67
2022/11/06 08:03:27;;;;;;;10.55;6.55;;;4.70;95.30;;;;;;5021129;28;20123;-67
2022/11/06 08:05:53;;;;;;;11.52;6.93;;;4.70;95.00;;;;;;5024089;28;20025;-67
2022/11/06 08:08:19;;;;;;;12.35;7.20;;;4.80;95.20;;;;;;5023245;28;20030;-67
2022/11/06 08:10:50;;;;;;;12.95;7.57;;;4.90;94.80;;;;;;5025081;28;20655;-67
2022/11/06 08:13:17;;;;;;;10.95;6.85;;;4.90;95.60;;;;;;5026970;28;20064;-67
2022/11/06 08:15:43;;;;;;;10.75;6.75;;;5.00;95.60;;;;;;4994999;28;20025;-68
2022/11/06 08:18:11;;;;;;;10.93;6.78;;;5.00;95.40;;;;;;4998165;28;20034;-69
2022/11/06 08:20:38;;;;;;;9.45;6.05;;;5.30;98.00;;;;;;5000281;28;20446;-68
2022/11/06 08:23:06;;;;;;;7.68;4.85;;;5.80;98.00;;;;;;5000905;28;20091;-69
2022/11/06 08:25:32;;;;;;;9.80;6.13;;;6.60;98.00;;;;;;4999396;28;20034;-69
2022/11/06 08:28:00;;;;;;;9.55;5.55;;;7.10;98.00;;;;;;5008819;28;20419;-68
2022/11/06 08:30:27;;;;;;;12.50;7.63;;;7.40;98.00;;;;;;5001759;28;20277;-69
2022/11/06 08:32:52;;;;;;;8.77;5.40;;;7.60;98.00;;;;;;4996962;28;20033;-69
2022/11/06 08:35:37;;;;;;;8.15;5.22;;;8.10;98.00;;;;;;4998127;28;20083;-69
2022/11/06 08:38:05;;;;;;;10.40;6.47;;;8.80;98.00;;;;;;4980129;28;20764;-68
2022/11/06 08:40:32;;;;;;;9.30;5.88;;;9.10;98.00;;;;;;5010029;28;20033;-69
2022/11/06 08:43:03;;;;;;;10.40;6.47;;;9.20;97.00;;;;;;5030292;28;20026;-69
2022/11/06 08:45:29;;;;;;;8.02;5.03;;;9.50;98.00;;;;;;5019147;28;20061;-70
2022/11/06 08:47:54;;;;;;;6.88;4.65;;;9.60;96.20;;;;;;5004233;28;21610;-69
2022/11/06 08:50:20;;;;;;;7.88;5.35;;;9.80;95.90;;;;;;5020757;28;20021;-70
2022/11/06 08:52:46;;;;;;;7.13;4.45;;;9.90;94.40;;;;;;5025881;28;20021;-68
2022/11/06 08:55:14;;;;;;;7.32;4.55;;;9.90;95.20;;;;;;5014246;28;20414;-69
2022/11/06 08:57:40;;;;;;;8.40;4.93;;;10.20;94.70;;;;;;5015690;28;20100;-68
2022/11/06 09:00:06;;;;;;;7.65;4.53;;;10.30;93.50;;;;;;5030531;28;20029;-68
2022/11/06 09:02:32;;;;;;;7.30;4.75;;;10.30;92.40;;;;;;5021875;28;20061;-68
2022/11/06 09:04:57;;;;;;;7.93;4.63;;;10.00;93.40;;;;;;5012511;28;20494;-68
2022/11/06 09:07:23;;;;;;;6.93;4.68;;;10.00;93.30;;;;;;5015432;28;20033;-69
2022/11/06 09:09:49;;;;;;;7.03;4.35;;;10.20;93.00;;;;;;5021568;28;20327;-70
2022/11/06 09:12:14;;;;;;;7.30;4.43;;;10.30;92.30;;;;;;4998132;28;20950;-70
2022/11/06 09:14:40;;;;;;;7.47;4.10;;;10.30;92.10;;;;;;5009267;28;20025;-68
2022/11/06 09:17:26;;;;;;;6.55;4.28;;;10.70;92.20;;;;;;5022868;28;20026;-68
2022/11/06 09:20:03;;;;;;;6.97;4.30;;;10.70;90.90;;;;;;5020934;28;20032;-68
2022/11/06 09:22:29;;;;;;;5.97;3.72;;;10.80;89.50;;;;;;5019451;28;20033;-69
2022/11/06 09:24:55;;;;;;;6.07;3.88;;;11.40;91.40;;;;;;5032055;28;20029;-69
2022/11/06 09:27:24;;;;;;;14.32;8.02;;;11.90;87.60;;;;;;5028456;28;20050;-70
2022/11/06 09:29:51;;;;;;;9.60;6.85;;;11.50;87.70;;;;;;5028779;28;20071;-69
2022/11/06 09:32:21;;;;;;;10.23;6.68;;;10.50;87.50;;;;;;5017283;28;20017;-69
2022/11/06 09:34:49;;;;;;;9.60;6.47;;;9.90;90.00;;;;;;5026693;28;20026;-69
2022/11/06 09:37:15;;;;;;;8.38;6.22;;;10.20;90.50;;;;;;5027328;28;20143;-69
2022/11/06 09:39:40;;;;;;;13.35;8.82;;;10.30;89.60;;;;;;5020875;28;20034;-69
2022/11/06 09:42:48;;;;;;;11.02;7.38;;;10.50;89.40;;;;;;5008515;28;20048;-69
2022/11/06 09:45:21;;;;;;;11.80;7.00;;;10.30;89.90;;;;;;5025571;28;20032;-69
2022/11/06 09:47:51;;;;;;;10.80;7.40;;;9.70;89.70;;;;;;5022419;28;20112;-69
2022/11/06 09:50:22;;;;;;;9.82;7.05;;;9.90;90.00;;;;;;5036018;28;20033;-69
2022/11/06 09:52:56;;;;;;;11.82;8.57;;;9.70;90.40;;;;;;5023474;28;20047;-69
2022/11/06 09:55:38;;;;;;;11.95;8.18;;;9.40;90.80;;;;;;5022220;28;20017;-69
2022/11/06 09:58:17;;;;;;;9.75;6.35;;;9.20;91.40;;;;;;5025995;28;20084;-69
2022/11/06 10:00:43;;;;;;;7.63;5.25;;;9.10;92.00;;;;;;5026615;28;20022;-69
2022/11/06 10:03:43;;;;;;;9.40;6.45;;;9.60;91.50;;;;;;5023753;28;20381;-69
2022/11/06 10:06:09;;;;;;;7.43;5.18;;;10.00;90.10;;;;;;5018637;28;20128;-69
2022/11/06 10:08:40;;;;;;;9.73;5.20;;;10.80;88.70;;;;;;5014620;28;20162;-69
2022/11/06 10:11:26;;;;;;;6.55;4.13;;;11.00;88.90;;;;;;5021463;28;20036;-69
2022/11/06 10:13:58;;;;;;;7.85;3.90;;;11.10;89.60;;;;;;5038123;28;20433;-69
2022/11/06 10:16:58;;;;;;;5.63;3.30;;;11.00;89.10;;;;;;5028800;28;20030;-68
2022/11/06 10:20:09;;;;;;;10.25;7.13;;;10.90;88.90;;;;;;5006282;28;20045;-69
2022/11/06 10:22:59;;;;;;;6.88;4.88;;;11.10;87.90;;;;;;5011403;28;20049;-68
2022/11/06 10:25:53;;;;;;;8.40;6.10;;;10.70;87.80;;;;;;5029819;28;20411;-68
2022/11/06 10:28:37;;;;;;;6.95;4.90;;;10.70;90.50;;;;;;5032123;28;20327;-68
2022/11/06 10:31:34;;;;;;;6.00;3.35;;;10.70;90.10;;;;;;5028910;28;20037;-68
2022/11/06 10:34:12;;;;;;;4.75;2.53;;;10.70;90.10;;;;;;5016286;28;20036;-69
2022/11/06 10:36:49;;;;;;;6.25;2.67;;;10.60;91.00;;;;;;5026018;28;20323;-69
2022/11/06 10:39:26;;;;;;;4.75;2.60;;;10.50;90.50;;;;;;5025413;28;20037;-69
2022/11/06 10:42:06;;;;;;;4.13;2.17;;;10.70;90.80;;;;;;5033375;28;20084;-68
2022/11/06 10:44:40;;;;;;;4.60;2.60;;;10.90;89.80;;;;;;5026795;28;20429;-68
2022/11/06 10:47:25;;;;;;;4.28;2.42;;;10.90;88.70;;;;;;5031190;28;20029;-68
2022/11/06 10:50:00;;;;;;;4.72;2.80;;;10.80;89.50;;;;;;5025907;28;20722;-69
2022/11/06 10:53:03;;;;;;;4.35;2.45;;;10.80;89.60;;;;;;5024268;28;20076;-69
2022/11/06 10:55:55;;;;;;;4.32;2.35;;;11.10;87.40;;;;;;5023434;28;20043;-69
2022/11/06 10:58:25;;;;;;;5.00;3.10;;;11.20;86.00;;;;;;5029219;28;20029;-69
2022/11/06 11:00:58;;;;;;;4.90;3.00;;;11.80;87.90;;;;;;5006754;28;20491;-68
2022/11/06 11:03:34;;;;;;;5.35;3.80;;;11.40;88.40;;;;;;5021497;28;20026;-68
2022/11/06 11:06:01;;;;;;;5.85;4.22;;;11.10;87.40;;;;;;5027439;28;20326;-68
2022/11/06 11:08:30;;;;;;;5.78;4.03;;;11.00;88.70;;;;;;5023167;28;20029;-69
2022/11/06 11:11:14;;;;;;;6.80;4.72;;;11.20;89.90;;;;;;5008248;28;20030;-68
2022/11/06 11:13:48;;;;;;;8.32;6.30;;;11.10;88.70;;;;;;5026327;28;20060;-68
2022/11/06 11:16:20;;;;;;;;;;;10.70;91.10;;;;;;5043891;28;20021;-68
2022/11/06 11:18:53;;;;;;;8.40;5.47;;;10.20;92.80;;;;;;5012676;28;19943;-68
2022/11/06 11:21:23;;;;;;;7.25;5.35;;;10.30;93.70;;;;;;5032940;28;20029;-68
2022/11/06 11:24:09;;;;;;;7.72;5.20;;;10.10;92.70;;;;;;5034222;28;20066;-68
2022/11/06 11:27:05;;;;;;;6.63;4.40;;;10.60;93.40;;;;;;5036932;28;20048;-68
2022/11/06 11:29:44;;;;;;;7.55;5.38;;;11.10;90.60;;;;;;5006205;28;20037;-68
2022/11/06 11:32:14;;;;;;;6.47;4.35;;;11.30;90.40;;;;;;5005166;28;20061;-68
2022/11/06 11:34:54;;;;;;;4.68;2.40;;;11.40;89.20;;;;;;5012738;28;20350;-68
2022/11/06 11:37:32;;;;;;;6.40;3.80;;;11.50;86.40;;;;;;5010672;28;20034;-68
2022/11/06 11:40:37;;;;;;;3.60;1.90;;;11.70;85.90;;;;;;5012835;28;20044;-68
2022/11/06 11:43:18;;;;;;;;;;;12.00;84.20;;;;;;4990921;28;20045;-69
2022/11/06 11:46:04;;;;;;;4.40;1.73;;;12.40;84.60;;;;;;4986582;28;19945;-68
2022/11/06 11:48:48;;;;;;;3.15;1.55;;;12.80;81.10;;;;;;4997076;28;20048;-67
2022/11/06 11:51:42;;;;;;;2.63;1.30;;;13.10;81.60;;;;;;5006372;28;20108;-66
2022/11/06 11:54:19;;;;;;;3.15;1.58;;;13.00;81.40;;;;;;5003906;28;20319;-66
2022/11/06 11:57:02;;;;;;;4.85;2.85;;;13.10;80.60;;;;;;5020441;28;20034;-67
2022/11/06 11:59:48;;;;;;;2.33;1.30;;;13.30;80.30;;;;;;5007833;28;20089;-66
2022/11/06 12:02:25;;;;;;;2.30;1.30;;;13.30;79.90;;;;;;4998649;28;20030;-67
2022/11/06 12:04:55;;;;;;;2.58;1.27;;;13.10;78.50;;;;;;5000983;28;20026;-67
2022/11/06 12:07:50;;;;;;;2.38;1.30;;;13.10;79.10;;;;;;5016218;28;20053;-69
2022/11/06 12:10:34;;;;;;;2.60;1.33;;;13.20;81.10;;;;;;5011665;28;20046;-68
2022/11/06 12:13:05;;;;;;;2.38;1.13;;;13.40;79.20;;;;;;5012513;28;20030;-68
2022/11/06 12:15:49;;;;;;;2.67;1.35;;;13.30;79.50;;;;;;4996164;28;20441;-67
2022/11/06 12:18:38;;;;;;;2.03;1.00;;;13.50;79.30;;;;;;4999217;28;20301;-66
2022/11/06 12:21:31;;;;;;;2.08;1.17;;;13.70;80.10;;;;;;4985124;28;20470;-67
2022/11/06 12:24:02;;;;;;;2.75;1.40;;;13.10;77.60;;;;;;5011807;28;20034;-69
2022/11/06 12:26:37;;;;;;;2.30;1.20;;;12.70;80.00;;;;;;5014545;28;20051;-67
2022/11/06 12:29:35;;;;;;;2.22;1.10;;;12.10;79.50;;;;;;5043223;28;20108;-67
2022/11/06 12:32:38;;;;;;;3.83;2.08;;;12.20;83.20;;;;;;5034992;28;20032;-68
2022/11/06 12:35:25;;;;;;;2.63;1.30;;;12.00;81.90;;;;;;5034790;28;20045;-69
2022/11/06 12:38:03;;;;;;;3.55;1.20;;;12.10;81.00;;;;;;5032865;28;20319;-69
2022/11/06 12:40:29;;;;;;;2.20;1.20;;;12.20;79.90;;;;;;5029159;28;20027;-68
2022/11/06 12:43:13;;;;;;;2.97;1.20;;;12.20;80.60;;;;;;5036823;28;20092;-67
2022/11/06 12:46:17;;;;;;;3.20;1.48;;;12.10;78.10;;;;;;5031551;28;20029;-68
2022/11/06 12:48:57;;;;;;;2.20;1.00;;;12.40;78.20;;;;;;5022586;28;20462;-67
2022/11/06 12:51:38;;;;;;;1.88;0.93;;;12.30;78.30;;;;;;5031650;28;20041;-68
2022/11/06 12:54:15;;;;;;;2.63;1.20;;;12.30;79.90;;;;;;5035761;28;20033;-68
2022/11/06 12:57:09;;;;;;;2.33;1.02;;;12.40;80.30;;;;;;5015970;28;20048;-69
2022/11/06 13:00:03;;;;;;;2.47;0.80;;;12.20;79.40;;;;;;5026485;28;20076;-68
2022/11/06 13:02:41;;;;;;;2.15;1.00;;;12.30;79.60;;;;;;5024503;28;20025;-68
2022/11/06 13:05:36;;;;;;;1.10;0.75;;;12.50;81.30;;;;;;5019395;28;20026;-68
2022/11/06 13:08:19;;;;;;;2.63;0.95;;;12.60;80.50;;;;;;5024136;28;20091;-68
2022/11/06 13:11:03;;;;;;;3.58;1.23;;;12.60;79.70;;;;;;5024319;28;20022;-68
2022/11/06 13:13:59;;;;;;;2.97;0.90;;;12.60;80.60;;;;;;5024353;28;20854;-68
2022/11/06 13:16:53;;;;;;;2.03;0.90;;;12.40;81.20;;;;;;5016422;28;20026;-68
2022/11/06 13:19:43;;;;;;;2.30;0.95;;;12.10;81.40;;;;;;5027870;28;20033;-68
2022/11/06 13:22:20;;;;;;;1.65;1.05;;;11.80;82.50;;;;;;5029953;28;20087;-68
2022/11/06 13:25:20;;;;;;;2.47;0.82;;;11.70;82.90;;;;;;5040384;28;20034;-67
2022/11/06 13:28:08;;;;;;;1.63;1.00;;;11.50;82.00;;;;;;5019795;28;20120;-67
2022/11/06 13:30:40;;;;;;;2.15;1.02;;;11.20;81.50;;;;;;5033819;28;20095;-67